Flight Track Log - Related Links

Times and Time Zones

All times are in EDT time to prevent confusion due to time zone crossing. See the TAM3049 flight status page for this flight to view local times or setup timezone preferences in your user account.

Time Position Orientation Groundspeed Altitude Reporting Facility
EDT Latitude Longitude Course Direction KTS MPH feet Rate Location/Type
Tue 09:53:00 PM -26.2441 -48.4389 211° Southwest  Level Estimated
Tue 09:54:00 PM -26.3340 -48.5018 212° Southwest  Level Estimated
Tue 09:55:00 PM -26.4238 -48.5647 212° Southwest  Level Estimated
Tue 09:56:00 PM -26.5137 -48.6278 212° Southwest  Level Estimated
Tue 09:57:00 PM -26.6034 -48.6910 212° Southwest  Level Estimated
Tue 09:58:00 PM -26.6932 -48.7543 212° Southwest  Level Estimated
Tue 09:59:00 PM -26.7829 -48.8177 212° Southwest  Level Estimated
Tue 10:00:00 PM -26.8726 -48.8811 212° Southwest  Level Estimated
Tue 10:01:00 PM -26.9623 -48.9447 212° Southwest  Level Estimated
Tue 10:02:00 PM -27.0519 -49.0084 212° Southwest  Level Estimated
Tue 10:03:00 PM -27.1415 -49.0722 212° Southwest  Level Estimated
Tue 10:04:00 PM -27.2311 -49.1361 212° Southwest  Level Estimated
Tue 10:05:00 PM -27.3207 -49.2001 212° Southwest  Level Estimated
Tue 10:06:00 PM -27.4102 -49.2642 212° Southwest  Level Estimated
Tue 10:07:00 PM -27.4997 -49.3284 212° Southwest  Level Estimated
Tue 10:08:00 PM -27.5892 -49.3927 212° Southwest  Level Estimated
Tue 10:09:00 PM -27.6786 -49.4571 213° Southwest  Level Estimated
Tue 10:10:00 PM -27.7680 -49.5216 213° Southwest  Level Estimated
Tue 10:11:00 PM -27.8574 -49.5862 213° Southwest  Level Estimated
Tue 10:12:00 PM -27.9468 -49.6510 213° Southwest  Level Estimated
Tue 10:13:00 PM -28.0361 -49.7158 213° Southwest  Level Estimated
Tue 10:14:00 PM -28.1254 -49.7807 213° Southwest  Level Estimated
Tue 10:15:00 PM -28.2146 -49.8458 213° Southwest  Level Estimated
Tue 10:16:00 PM -28.3039 -49.9109 213° Southwest  Level Estimated
Tue 10:17:00 PM -28.3931 -49.9762 213° Southwest  Level Estimated
Tue 10:18:00 PM -28.4822 -50.0416 213° Southwest  Level Estimated
Tue 10:19:00 PM -28.5714 -50.1071 213° Southwest  Level Estimated
Tue 10:20:00 PM -28.6604 -50.1727 213° Southwest  Level Estimated
Tue 10:21:00 PM -28.7495 -50.2384 213° Southwest  Level Estimated
Tue 10:22:00 PM -28.8386 -50.3042 213° Southwest  Level Estimated
Tue 10:23:00 PM -28.9276 -50.3701 213° Southwest  Level Estimated
Tue 10:24:00 PM -29.0165 -50.4362 213° Southwest  Level Estimated
Tue 10:25:00 PM -29.1055 -50.5023 213° Southwest  Level Estimated
Tue 10:26:00 PM -29.1944 -50.5686 213° Southwest  Level Estimated
Tue 10:27:00 PM -29.2833 -50.6350 213° Southwest  Level Estimated
Tue 10:28:00 PM -29.3721 -50.7015 213° Southwest  Level Estimated
Tue 10:29:00 PM -29.4609 -50.7682 213° Southwest  Level Estimated
Tue 10:30:00 PM -29.5497 -50.8349 213° Southwest  Level Estimated
Tue 10:31:00 PM -29.6384 -50.9018 213° Southwest  Level Estimated
Tue 10:32:00 PM -29.7271 -50.9687 213° Southwest  Level Estimated
Tue 10:33:00 PM -29.8158 -51.0358 213° Southwest  Level Estimated
Tue 10:34:00 PM -29.9044 -51.1031 213° Southwest  Level Estimated
Tue 10:35:00 PM -29.9931 -51.1704 213° Southwest  Level Estimated
Tue 10:36:00 PM -29.9944 -51.1714 213° Southwest  Level Estimated
Tue 10:37:00 PM -29.9944 -51.1714 41° Northeast  Level Estimated
Tue 10:38:00 PM -29.9944 -51.1714 41° Northeast  Level Estimated
Tue 10:39:00 PM -29.9944 -51.1714 41° Northeast  Level Estimated
Tue 10:40:00 PM -29.9944 -51.1714 41° Northeast  Level Estimated
Tue 10:41:00 PM -29.9944 -51.1714 41° Northeast  Level Estimated
Tue 10:42:00 PM -29.9944 -51.1714 41° Northeast  Level Estimated
Tue 10:43:00 PM -29.9944 -51.1714 41° Northeast  Level Estimated
Tue 10:44:00 PM -29.9944 -51.1714 41° Northeast  Level Estimated
Tue 10:45:00 PM -29.9944 -51.1714 41° Northeast  Level Estimated
Tue 10:46:00 PM -29.9944 -51.1714 41° Northeast  Level Estimated
Tue 10:47:00 PM -29.9944 -51.1714 41° Northeast  Level Estimated
Tue 10:48:00 PM -29.9944 -51.1714 41° Northeast  Level Estimated
Tue 10:49:00 PM -29.9944 -51.1714 41° Northeast  Level Estimated
Tue 10:50:00 PM -29.9944 -51.1714 41° Northeast  Level Estimated
Tue 10:51:00 PM -29.9944 -51.1714 41° Northeast  Level Estimated

Login

Don't have an account? Register now (free) for customized features, flight alerts, and more!